createdAt,value
2022-08-05T00:01:35.511Z,3.85
2022-08-05T00:04:03.812Z,3.50
2022-08-05T00:06:33.430Z,3.90
2022-08-05T00:09:02.890Z,3.87
2022-08-05T00:11:34.708Z,3.20
2022-08-05T00:14:12.814Z,3.70
2022-08-05T00:16:52.895Z,3.55
2022-08-05T00:19:21.489Z,3.70
2022-08-05T00:21:49.292Z,3.00
2022-08-05T00:24:16.169Z,3.45
2022-08-05T00:26:51.978Z,3.40
2022-08-05T00:29:19.218Z,3.45
2022-08-05T00:32:11.039Z,3.70
2022-08-05T00:34:56.408Z,3.70
2022-08-05T00:37:25.367Z,3.25
2022-08-05T00:39:57.985Z,3.75
2022-08-05T00:42:33.194Z,3.40
2022-08-05T00:45:00.276Z,3.67
2022-08-05T00:47:31.756Z,3.87
2022-08-05T00:50:13.456Z,3.30
2022-08-05T00:52:45.444Z,3.83
2022-08-05T00:55:13.471Z,3.85
2022-08-05T00:57:57.992Z,4.22
2022-08-05T01:00:27.980Z,3.57
2022-08-05T01:02:55.878Z,3.83
2022-08-05T01:05:22.764Z,4.20
2022-08-05T01:08:41.504Z,3.90
2022-08-05T01:10:56.623Z,3.83
2022-08-05T01:13:58.823Z,4.10
2022-08-05T01:16:26.151Z,3.92
2022-08-05T01:19:05.951Z,4.00
2022-08-05T01:21:51.617Z,4.10
2022-08-05T01:24:52.096Z,3.80
2022-08-05T01:28:17.073Z,3.80
2022-08-05T01:31:12.150Z,3.35
2022-08-05T01:33:54.372Z,4.10
2022-08-05T01:36:28.118Z,3.80
2022-08-05T01:38:56.441Z,4.07
2022-08-05T01:41:29.232Z,3.77
2022-08-05T01:43:57.032Z,3.60
2022-08-05T01:46:43.092Z,3.65
2022-08-05T01:49:23.828Z,3.72
2022-08-05T01:51:55.132Z,3.58
2022-08-05T01:54:25.707Z,3.50
2022-08-05T01:58:12.554Z,3.95
2022-08-05T01:59:47.115Z,4.35
2022-08-05T02:02:14.214Z,3.72
2022-08-05T02:04:46.252Z,4.55
2022-08-05T02:07:21.912Z,3.93
2022-08-05T02:09:50.223Z,4.00
2022-08-05T02:12:53.735Z,4.07
2022-08-05T02:15:25.612Z,3.67
2022-08-05T02:18:33.178Z,4.00
2022-08-05T02:21:15.572Z,3.60
2022-08-05T02:23:46.379Z,3.60
2022-08-05T02:26:19.114Z,3.80
2022-08-05T02:28:49.495Z,3.63
2022-08-05T02:31:26.594Z,4.53
2022-08-05T02:34:05.073Z,4.00
2022-08-05T02:36:33.867Z,4.50
2022-08-05T02:39:04.873Z,4.93
2022-08-05T02:41:57.976Z,4.10
2022-08-05T02:44:25.663Z,4.05
2022-08-05T02:47:00.287Z,4.90
2022-08-05T02:49:36.059Z,3.90
2022-08-05T02:52:07.586Z,4.45
2022-08-05T02:54:37.126Z,4.10
2022-08-05T02:57:10.338Z,3.67
2022-08-05T02:59:55.641Z,4.53
2022-08-05T03:02:29.657Z,4.53
2022-08-05T03:04:58.067Z,5.03
2022-08-05T03:08:00.157Z,4.90
2022-08-05T03:10:21.798Z,4.90
2022-08-05T03:12:51.722Z,5.60
2022-08-05T03:15:18.527Z,5.70
2022-08-05T03:17:45.096Z,5.10
2022-08-05T03:20:12.048Z,5.75
2022-08-05T03:22:46.882Z,5.75
2022-08-05T03:26:03.517Z,6.13
2022-08-05T03:28:08.726Z,5.80
2022-08-05T03:30:36.215Z,7.28
2022-08-05T03:33:05.573Z,6.63
2022-08-05T03:35:33.793Z,7.03
2022-08-05T03:38:01.027Z,6.43
2022-08-05T03:40:31.212Z,6.40
2022-08-05T03:43:16.072Z,5.72
2022-08-05T03:45:57.216Z,5.65
2022-08-05T03:48:24.940Z,5.28
2022-08-05T03:52:36.906Z,5.20
2022-08-05T03:55:49.952Z,5.07
2022-08-05T03:56:49.907Z,5.13
2022-08-05T03:59:29.157Z,4.95
2022-08-05T04:02:17.620Z,5.88
2022-08-05T04:05:03.283Z,5.20
2022-08-05T04:07:30.992Z,5.10
2022-08-05T04:10:01.646Z,5.78
2022-08-05T04:12:29.916Z,5.78
2022-08-05T04:14:59.067Z,5.35
2022-08-05T04:17:25.992Z,5.47
2022-08-05T04:20:23.097Z,6.03
2022-08-05T04:22:50.246Z,5.82
2022-08-05T04:25:17.301Z,4.95
2022-08-05T04:27:56.821Z,5.47
2022-08-05T04:30:24.790Z,5.67
2022-08-05T04:32:53.215Z,5.55
2022-08-05T04:35:20.128Z,5.75
2022-08-05T04:38:02.181Z,5.68
2022-08-05T04:40:44.575Z,5.80
2022-08-05T04:43:17.779Z,5.27
2022-08-05T04:45:55.183Z,7.13
2022-08-05T04:48:27.291Z,6.57
2022-08-05T04:51:01.979Z,6.90
2022-08-05T04:53:33.987Z,6.53
2022-08-05T04:56:15.367Z,6.77
2022-08-05T04:58:49.287Z,6.57
2022-08-05T05:01:15.840Z,7.60
2022-08-05T05:04:02.253Z,6.50
2022-08-05T05:06:39.799Z,6.55
2022-08-05T05:09:14.089Z,5.87
2022-08-05T05:11:54.481Z,5.60
2022-08-05T05:14:28.179Z,5.20
2022-08-05T05:17:02.111Z,5.35
2022-08-05T05:19:37.264Z,5.82
2022-08-05T05:22:23.488Z,5.80
2022-08-05T05:24:57.732Z,5.72
2022-08-05T05:27:41.236Z,6.32
2022-08-05T05:30:28.885Z,5.78
2022-08-05T05:32:57.046Z,5.82
2022-08-05T05:35:28.001Z,5.57
2022-08-05T05:38:02.061Z,5.97
2022-08-05T05:40:32.222Z,4.93
2022-08-05T05:43:00.480Z,5.53
2022-08-05T05:45:29.104Z,5.47
2022-08-05T05:48:06.113Z,5.43
2022-08-05T05:50:41.257Z,5.05
2022-08-05T05:53:21.937Z,5.68
2022-08-05T05:55:51.425Z,4.90
2022-08-05T05:58:32.122Z,5.13
2022-08-05T06:01:13.109Z,5.03
2022-08-05T06:04:00.755Z,5.60
2022-08-05T06:06:30.782Z,5.43
2022-08-05T06:08:59.832Z,5.60
2022-08-05T06:11:26.314Z,5.78
2022-08-05T06:13:55.785Z,5.43
2022-08-05T06:16:28.194Z,5.88
2022-08-05T06:19:00.012Z,5.95
2022-08-05T06:21:37.641Z,5.90
2022-08-05T06:24:12.260Z,5.72
2022-08-05T06:26:51.589Z,6.13
2022-08-05T06:29:25.329Z,4.97
2022-08-05T06:32:25.377Z,5.32
2022-08-05T06:34:56.190Z,5.68
2022-08-05T06:37:52.323Z,5.68
2022-08-05T06:40:11.277Z,5.67
2022-08-05T06:42:39.892Z,5.28
2022-08-05T06:45:08.593Z,5.72
2022-08-05T06:48:37.220Z,5.93
2022-08-05T06:50:22.715Z,5.55
2022-08-05T06:53:03.610Z,5.77
2022-08-05T06:55:36.721Z,5.93
2022-08-05T06:58:30.141Z,5.75
2022-08-05T07:00:51.133Z,6.05
2022-08-05T07:03:18.493Z,5.93
2022-08-05T07:05:46.188Z,5.33
2022-08-05T07:08:13.404Z,5.38
2022-08-05T07:10:52.274Z,6.10
2022-08-05T07:13:59.606Z,5.53
2022-08-05T07:18:01.085Z,6.55
2022-08-05T07:22:28.699Z,5.35
2022-08-05T07:25:23.720Z,5.55
2022-08-05T07:27:58.557Z,5.53
2022-08-05T07:30:34.327Z,5.32
2022-08-05T07:33:05.510Z,5.17
2022-08-05T07:36:04.656Z,5.00
2022-08-05T07:38:33.471Z,5.47
2022-08-05T07:42:07.276Z,4.63
2022-08-05T07:43:56.296Z,4.30
2022-08-05T07:46:27.856Z,3.57
2022-08-05T07:49:03.591Z,3.92
2022-08-05T07:51:40.942Z,4.68
2022-08-05T07:54:23.281Z,4.00
2022-08-05T07:57:02.579Z,3.90
2022-08-05T07:59:41.064Z,3.47
2022-08-05T08:02:15.873Z,3.53
2022-08-05T08:04:48.641Z,3.70
2022-08-05T08:07:17.966Z,3.80
2022-08-05T08:09:46.063Z,4.13
2022-08-05T08:12:37.082Z,3.33
2022-08-05T08:15:02.580Z,3.28
2022-08-05T08:17:30.494Z,4.18
2022-08-05T08:20:22.067Z,3.00
2022-08-05T08:22:43.677Z,3.55
2022-08-05T08:25:16.137Z,3.30
2022-08-05T08:27:47.940Z,2.83
2022-08-05T08:30:29.551Z,3.38
2022-08-05T08:33:04.645Z,3.33
2022-08-05T08:35:41.244Z,2.95
2022-08-05T08:38:08.434Z,2.97
2022-08-05T08:40:38.354Z,3.08
2022-08-05T08:45:17.109Z,3.67
2022-08-05T08:45:54.074Z,2.47
2022-08-05T08:48:41.467Z,3.03
2022-08-05T08:51:54.617Z,2.70
2022-08-05T08:53:56.136Z,2.53
2022-08-05T08:56:23.629Z,3.03
2022-08-05T08:58:54.338Z,2.50
2022-08-05T09:01:21.588Z,2.33
2022-08-05T09:03:54.602Z,2.53
2022-08-05T09:06:29.586Z,2.38
2022-08-05T09:08:58.443Z,2.90
2022-08-05T09:11:52.922Z,2.60
2022-08-05T09:14:56.347Z,2.55
2022-08-05T09:17:05.130Z,2.50
2022-08-05T09:19:36.785Z,2.90
2022-08-05T09:22:31.146Z,2.92
2022-08-05T09:25:00.496Z,2.60
2022-08-05T09:28:05.497Z,3.28
2022-08-05T09:30:26.663Z,2.90
2022-08-05T09:32:53.637Z,2.47
2022-08-05T09:35:26.414Z,3.28
2022-08-05T09:38:17.915Z,2.85
2022-08-05T09:40:47.678Z,2.65
2022-08-05T09:43:40.932Z,2.67
2022-08-05T09:46:27.397Z,4.72
2022-08-05T09:49:07.654Z,3.92
2022-08-05T09:51:40.013Z,2.78
2022-08-05T09:54:09.322Z,4.10
2022-08-05T09:56:38.026Z,2.80
2022-08-05T09:59:11.258Z,2.55
2022-08-05T10:01:46.529Z,3.05
2022-08-05T10:04:16.102Z,2.65
2022-08-05T10:06:59.394Z,2.50
2022-08-05T10:09:28.262Z,2.53
2022-08-05T10:12:29.986Z,2.42
2022-08-05T10:15:16.216Z,2.40
2022-08-05T10:17:47.394Z,3.20
2022-08-05T10:20:23.153Z,2.60
2022-08-05T10:22:51.946Z,2.33
2022-08-05T10:25:19.683Z,2.40
2022-08-05T10:28:12.887Z,2.58
2022-08-05T10:32:49.268Z,2.53
2022-08-05T10:33:28.873Z,2.70
2022-08-05T10:35:59.245Z,3.20
2022-08-05T10:38:29.425Z,2.47
2022-08-05T10:41:46.512Z,3.50
2022-08-05T10:44:18.301Z,2.35
2022-08-05T10:46:54.018Z,2.65
2022-08-05T10:49:26.732Z,2.20
2022-08-05T10:52:02.481Z,2.95
2022-08-05T10:55:10.253Z,2.80
2022-08-05T10:57:44.820Z,2.17
2022-08-05T11:00:20.038Z,2.47
2022-08-05T11:02:59.092Z,2.20
2022-08-05T11:06:05.180Z,2.33
2022-08-05T11:08:37.164Z,2.20
2022-08-05T11:11:44.321Z,1.80
2022-08-05T11:14:12.796Z,2.72
2022-08-05T11:16:57.932Z,2.40
2022-08-05T11:20:10.691Z,3.10
2022-08-05T11:22:39.819Z,2.60
2022-08-05T11:26:04.615Z,1.98
2022-08-05T11:28:17.427Z,1.95
2022-08-05T11:30:58.894Z,2.30
2022-08-05T11:33:51.653Z,2.60
2022-08-05T11:36:42.888Z,2.30
2022-08-05T11:39:10.267Z,2.65
2022-08-05T11:41:56.431Z,2.50
2022-08-05T11:44:52.705Z,2.40
2022-08-05T11:47:48.842Z,2.67
2022-08-05T11:50:09.722Z,2.35
2022-08-05T11:52:41.689Z,2.47
2022-08-05T11:55:11.431Z,2.72
2022-08-05T11:58:09.498Z,2.80
2022-08-05T12:00:32.316Z,2.53
2022-08-05T12:03:29.264Z,2.28
2022-08-05T12:06:06.148Z,2.28
2022-08-05T12:08:50.951Z,2.22
2022-08-05T12:11:20.259Z,2.83
2022-08-05T12:14:08.339Z,2.42
2022-08-05T12:16:45.587Z,2.70
2022-08-05T12:20:27.779Z,2.60
2022-08-05T12:22:01.311Z,2.40
2022-08-05T12:24:27.894Z,2.00
2022-08-05T12:26:54.516Z,2.03
2022-08-05T12:29:26.767Z,2.75
2022-08-05T12:32:01.862Z,2.17
2022-08-05T12:34:37.737Z,2.53
2022-08-05T12:37:22.794Z,2.33
2022-08-05T12:40:03.335Z,2.20
2022-08-05T12:42:36.902Z,2.90
2022-08-05T12:45:08.923Z,2.45
2022-08-05T12:47:37.591Z,2.10
2022-08-05T12:50:15.679Z,2.13
2022-08-05T12:52:42.946Z,2.60
2022-08-05T12:55:25.177Z,3.10
2022-08-05T12:58:50.934Z,2.50
2022-08-05T13:02:00.490Z,2.65
2022-08-05T13:03:42.251Z,2.13
2022-08-05T13:06:15.989Z,2.00
2022-08-05T13:08:52.266Z,2.47
2022-08-05T13:11:25.474Z,2.47
2022-08-05T13:14:15.371Z,2.42
2022-08-05T13:16:56.637Z,2.53
2022-08-05T13:19:50.900Z,1.83
2022-08-05T13:22:15.214Z,2.97
2022-08-05T13:24:57.415Z,2.55
2022-08-05T13:27:38.017Z,2.60
2022-08-05T13:30:35.275Z,2.07
2022-08-05T13:32:54.703Z,2.22
2022-08-05T13:35:43.388Z,2.28
2022-08-05T13:38:10.783Z,2.25
2022-08-05T13:40:51.459Z,2.38
2022-08-05T13:43:21.939Z,2.60
2022-08-05T13:45:48.738Z,2.20
2022-08-05T13:48:57.664Z,2.38
2022-08-05T13:51:13.660Z,2.50
2022-08-05T13:53:47.922Z,2.13
2022-08-05T13:56:18.434Z,1.80
2022-08-05T13:58:53.068Z,2.22
2022-08-05T14:01:25.839Z,2.15
2022-08-05T14:04:21.189Z,2.33
2022-08-05T14:06:47.903Z,2.85
2022-08-05T14:09:25.361Z,1.67
2022-08-05T14:12:04.086Z,2.00
2022-08-05T14:14:33.798Z,1.95
2022-08-05T14:17:00.797Z,2.03
2022-08-05T14:19:27.385Z,2.45
2022-08-05T14:22:09.095Z,2.13
2022-08-05T14:24:39.804Z,2.45
2022-08-05T14:27:17.786Z,2.28
2022-08-05T14:29:45.095Z,2.05
2022-08-05T14:32:26.827Z,2.33
2022-08-05T14:34:54.792Z,2.60
2022-08-05T14:37:24.262Z,1.90
2022-08-05T14:40:14.085Z,2.83
2022-08-05T14:42:43.203Z,2.05
2022-08-05T14:45:10.250Z,2.30
2022-08-05T14:47:58.516Z,2.10
2022-08-05T14:50:25.328Z,2.30
2022-08-05T14:52:58.388Z,1.92
2022-08-05T14:55:28.707Z,2.63
2022-08-05T14:58:10.864Z,2.20
2022-08-05T15:00:39.680Z,1.77
2022-08-05T15:03:34.001Z,1.85
2022-08-05T15:06:08.209Z,2.30
2022-08-05T15:09:01.146Z,2.00
2022-08-05T15:11:52.066Z,3.00
2022-08-05T15:14:33.584Z,2.83
2022-08-05T15:17:04.682Z,2.67
2022-08-05T15:19:32.089Z,2.92
2022-08-05T15:22:01.341Z,1.95
2022-08-05T15:24:28.916Z,2.40
2022-08-05T15:26:55.849Z,2.47
2022-08-05T15:29:23.520Z,2.42
2022-08-05T15:31:56.167Z,3.22
2022-08-05T15:34:32.923Z,2.13
2022-08-05T15:37:06.217Z,2.28
2022-08-05T15:40:58.967Z,2.10
2022-08-05T15:42:54.137Z,2.58
2022-08-05T15:45:07.827Z,2.42
2022-08-05T15:47:36.462Z,2.60
2022-08-05T15:50:04.380Z,2.40
2022-08-05T15:52:51.722Z,2.37
2022-08-05T15:55:19.259Z,2.40
2022-08-05T15:57:51.274Z,2.53
2022-08-05T16:00:26.482Z,2.17
2022-08-05T16:03:05.051Z,2.47
2022-08-05T16:05:32.018Z,2.40
2022-08-05T16:07:58.640Z,2.22
2022-08-05T16:10:26.996Z,2.50
2022-08-05T16:12:55.906Z,1.88
2022-08-05T16:15:22.858Z,2.47
2022-08-05T16:17:57.960Z,2.10
2022-08-05T16:20:25.680Z,2.33
2022-08-05T16:22:54.514Z,2.47
2022-08-05T16:25:20.997Z,2.40
2022-08-05T16:28:00.757Z,2.50
2022-08-05T16:30:32.395Z,2.57
2022-08-05T16:33:00.490Z,2.25
2022-08-05T16:35:33.638Z,2.60
2022-08-05T16:38:24.326Z,2.83
2022-08-05T16:40:59.714Z,2.40
2022-08-05T16:43:30.292Z,2.53
2022-08-05T16:46:07.276Z,2.20
2022-08-05T16:48:39.764Z,2.50
2022-08-05T16:51:09.812Z,3.00
2022-08-05T16:54:04.179Z,2.58
2022-08-05T16:56:24.905Z,2.10
2022-08-05T16:58:51.719Z,2.78
2022-08-05T17:01:19.146Z,2.78
2022-08-05T17:03:46.163Z,2.58
2022-08-05T17:06:13.159Z,2.65
2022-08-05T17:08:53.389Z,2.40
2022-08-05T17:11:25.374Z,1.90
2022-08-05T17:14:00.509Z,2.33
2022-08-05T17:16:36.794Z,1.98
2022-08-05T17:19:07.853Z,2.78
2022-08-05T17:21:37.342Z,1.97
2022-08-05T17:24:19.443Z,2.50
2022-08-05T17:26:58.012Z,2.38
2022-08-05T17:29:33.749Z,2.38
2022-08-05T17:32:11.745Z,1.80
2022-08-05T17:34:44.901Z,2.00
2022-08-05T17:37:40.575Z,1.92
2022-08-05T17:40:01.095Z,2.17
2022-08-05T17:42:30.176Z,2.03
2022-08-05T17:44:59.471Z,2.25
2022-08-05T17:47:26.536Z,2.17
2022-08-05T17:50:03.595Z,1.88
2022-08-05T17:52:53.024Z,2.22
2022-08-05T17:55:22.645Z,1.92
2022-08-05T17:57:54.285Z,2.50
2022-08-05T18:00:21.014Z,2.87
2022-08-05T18:02:55.264Z,2.35
2022-08-05T18:05:21.889Z,2.22
2022-08-05T18:07:48.458Z,2.05
2022-08-05T18:10:21.072Z,2.35
2022-08-05T18:12:49.022Z,2.83
2022-08-05T18:15:15.532Z,3.15
2022-08-05T18:18:00.313Z,2.63
2022-08-05T18:20:31.697Z,1.60
2022-08-05T18:23:00.654Z,2.30
2022-08-05T18:25:38.918Z,1.60
2022-08-05T18:28:06.821Z,2.00
2022-08-05T18:30:34.619Z,2.22
2022-08-05T18:33:01.898Z,2.15
2022-08-05T18:36:00.009Z,1.80
2022-08-05T18:38:19.438Z,1.77
2022-08-05T18:41:57.045Z,2.13
2022-08-05T18:43:43.030Z,2.22
2022-08-05T18:46:16.087Z,2.10
2022-08-05T18:48:47.875Z,1.90
2022-08-05T18:52:04.148Z,2.17
2022-08-05T18:54:31.250Z,2.05
2022-08-05T18:57:00.792Z,2.78
2022-08-05T18:59:42.752Z,1.80
2022-08-05T19:02:26.980Z,2.13
2022-08-05T19:05:02.782Z,1.90
2022-08-05T19:07:45.886Z,2.00
2022-08-05T19:10:14.321Z,2.22
2022-08-05T19:12:41.182Z,1.80
2022-08-05T19:15:24.978Z,1.92
2022-08-05T19:18:08.784Z,2.10
2022-08-05T19:20:39.494Z,2.67
2022-08-05T19:23:08.509Z,2.35
2022-08-05T19:26:02.054Z,2.72
2022-08-05T19:28:32.875Z,2.42
2022-08-05T19:31:00.328Z,2.93
2022-08-05T19:33:35.567Z,2.40
2022-08-05T19:36:07.084Z,2.33
2022-08-05T19:38:36.449Z,2.47
2022-08-05T19:41:06.980Z,2.30
2022-08-05T19:44:06.549Z,2.03
2022-08-05T19:46:30.305Z,2.85
2022-08-05T19:49:03.294Z,3.00
2022-08-05T19:52:05.949Z,2.00
2022-08-05T19:54:26.938Z,2.67
2022-08-05T19:56:58.242Z,2.77
2022-08-05T19:59:56.195Z,3.40
2022-08-05T20:02:11.583Z,2.15
2022-08-05T20:04:38.073Z,2.33
2022-08-05T20:07:10.318Z,2.60
2022-08-05T20:09:54.490Z,2.23
2022-08-05T20:12:24.323Z,2.35
2022-08-05T20:14:52.431Z,2.50
2022-08-05T20:17:19.312Z,2.13
2022-08-05T20:19:50.541Z,3.10
2022-08-05T20:22:17.203Z,2.27
2022-08-05T20:24:46.911Z,2.38
2022-08-05T20:27:15.759Z,2.63
2022-08-05T20:29:42.361Z,2.28
2022-08-05T20:32:25.330Z,2.65
2022-08-05T20:34:51.889Z,2.53
2022-08-05T20:38:05.010Z,2.25
2022-08-05T20:40:05.612Z,2.80
2022-08-05T20:42:33.174Z,2.80
2022-08-05T20:44:59.631Z,3.15
2022-08-05T20:47:32.240Z,2.60
2022-08-05T20:49:59.370Z,2.45
2022-08-05T20:52:26.235Z,3.00
2022-08-05T20:54:59.615Z,2.97
2022-08-05T20:57:43.788Z,3.42
2022-08-05T21:00:21.264Z,2.80
2022-08-05T21:03:04.625Z,2.80
2022-08-05T21:05:47.971Z,2.95
2022-08-05T21:08:28.226Z,2.67
2022-08-05T21:11:11.970Z,2.97
2022-08-05T21:13:56.439Z,2.70
2022-08-05T21:16:30.480Z,2.70
2022-08-05T21:19:00.177Z,3.13
2022-08-05T21:21:39.896Z,2.63
2022-08-05T21:24:12.943Z,2.80
2022-08-05T21:26:39.958Z,3.23
2022-08-05T21:29:09.893Z,3.05
2022-08-05T21:31:41.455Z,3.20
2022-08-05T21:34:08.684Z,3.17
2022-08-05T21:36:37.366Z,3.03
2022-08-05T21:39:03.935Z,3.03
2022-08-05T21:41:33.786Z,3.63
2022-08-05T21:44:04.904Z,3.92
2022-08-05T21:46:34.861Z,3.63
2022-08-05T21:49:04.780Z,3.78
2022-08-05T21:52:22.981Z,3.87
2022-08-05T21:54:28.079Z,3.90
2022-08-05T21:57:15.488Z,3.83
2022-08-05T22:00:02.974Z,4.22
2022-08-05T22:02:30.615Z,3.95
2022-08-05T22:04:58.576Z,3.77
2022-08-05T22:07:40.469Z,4.10
2022-08-05T22:10:12.362Z,5.18
2022-08-05T22:12:40.327Z,4.55
2022-08-05T22:15:16.419Z,4.18
2022-08-05T22:17:56.269Z,4.70
2022-08-05T22:20:26.205Z,5.95
2022-08-05T22:23:16.963Z,5.70
2022-08-05T22:26:09.996Z,5.88
2022-08-05T22:28:38.502Z,6.53
2022-08-05T22:31:06.001Z,5.97
2022-08-05T22:33:58.343Z,6.82
2022-08-05T22:36:19.518Z,7.05
2022-08-05T22:38:51.477Z,7.25
2022-08-05T22:42:05.632Z,7.47
2022-08-05T22:44:08.811Z,7.03
2022-08-05T22:46:39.729Z,7.07
2022-08-05T22:49:23.030Z,7.75
2022-08-05T22:52:06.527Z,7.72
2022-08-05T22:54:34.985Z,7.45
2022-08-05T22:57:01.539Z,7.30
2022-08-05T22:59:45.218Z,8.05
2022-08-05T23:02:16.872Z,8.82
2022-08-05T23:04:51.625Z,8.68
2022-08-05T23:07:22.093Z,8.85
2022-08-05T23:09:57.015Z,8.40
2022-08-05T23:12:28.574Z,8.65
2022-08-05T23:14:55.265Z,8.68
2022-08-05T23:17:34.638Z,8.65
2022-08-05T23:20:16.703Z,9.10
2022-08-05T23:22:48.350Z,9.03
2022-08-05T23:25:17.157Z,8.95
2022-08-05T23:28:00.525Z,9.60
2022-08-05T23:30:29.275Z,9.48
2022-08-05T23:32:58.126Z,9.90
2022-08-05T23:35:34.058Z,8.87
2022-08-05T23:38:01.068Z,9.10
2022-08-05T23:40:27.614Z,9.57
2022-08-05T23:42:54.143Z,9.00
2022-08-05T23:45:20.954Z,9.52
2022-08-05T23:47:53.646Z,9.33
2022-08-05T23:50:20.630Z,9.65
2022-08-05T23:52:49.859Z,9.45
2022-08-05T23:55:18.191Z,9.55
2022-08-05T23:57:48.854Z,9.18
